sensor_id;sensor_type;location;lat;lon;timestamp;P1;durP1;ratioP1;P2;durP2;ratioP2
66702;SDS011;60933;46.398;-63.798;2023-02-15T00:01:24;0.68;;;0.40;;
66702;SDS011;60933;46.398;-63.798;2023-02-15T00:03:50;0.77;;;0.30;;
66702;SDS011;60933;46.398;-63.798;2023-02-15T00:06:16;2.65;;;0.30;;
66702;SDS011;60933;46.398;-63.798;2023-02-15T00:08:43;1.55;;;0.30;;
66702;SDS011;60933;46.398;-63.798;2023-02-15T00:11:11;2.58;;;0.38;;
66702;SDS011;60933;46.398;-63.798;2023-02-15T00:13:39;0.60;;;0.43;;
66702;SDS011;60933;46.398;-63.798;2023-02-15T00:16:09;1.63;;;0.43;;
66702;SDS011;60933;46.398;-63.798;2023-02-15T00:18:37;2.33;;;0.50;;
66702;SDS011;60933;46.398;-63.798;2023-02-15T00:21:06;1.23;;;0.55;;
66702;SDS011;60933;46.398;-63.798;2023-02-15T00:23:34;1.48;;;0.60;;
66702;SDS011;60933;46.398;-63.798;2023-02-15T00:26:08;0.52;;;0.30;;
66702;SDS011;60933;46.398;-63.798;2023-02-15T00:28:35;0.80;;;0.30;;
66702;SDS011;60933;46.398;-63.798;2023-02-15T00:33:31;1.35;;;0.52;;
66702;SDS011;60933;46.398;-63.798;2023-02-15T00:38:25;0.35;;;0.30;;
66702;SDS011;60933;46.398;-63.798;2023-02-15T00:40:53;2.60;;;0.38;;
66702;SDS011;60933;46.398;-63.798;2023-02-15T00:43:20;1.92;;;0.50;;
66702;SDS011;60933;46.398;-63.798;2023-02-15T00:45:46;1.55;;;0.52;;
66702;SDS011;60933;46.398;-63.798;2023-02-15T00:48:12;1.45;;;0.30;;
66702;SDS011;60933;46.398;-63.798;2023-02-15T00:50:38;1.65;;;0.55;;
66702;SDS011;60933;46.398;-63.798;2023-02-15T00:53:05;2.88;;;0.65;;
66702;SDS011;60933;46.398;-63.798;2023-02-15T00:55:31;0.90;;;0.40;;
66702;SDS011;60933;46.398;-63.798;2023-02-15T00:57:58;0.80;;;0.65;;
66702;SDS011;60933;46.398;-63.798;2023-02-15T01:00:24;0.90;;;0.40;;
66702;SDS011;60933;46.398;-63.798;2023-02-15T01:02:50;1.20;;;0.52;;
66702;SDS011;60933;46.398;-63.798;2023-02-15T01:05:19;2.40;;;0.57;;
66702;SDS011;60933;46.398;-63.798;2023-02-15T01:07:45;1.75;;;0.90;;
66702;SDS011;60933;46.398;-63.798;2023-02-15T01:10:11;1.33;;;0.50;;
66702;SDS011;60933;46.398;-63.798;2023-02-15T01:12:37;1.45;;;0.55;;
66702;SDS011;60933;46.398;-63.798;2023-02-15T01:15:03;1.38;;;0.30;;
66702;SDS011;60933;46.398;-63.798;2023-02-15T01:17:30;0.68;;;0.32;;
66702;SDS011;60933;46.398;-63.798;2023-02-15T01:19:57;0.95;;;0.30;;
66702;SDS011;60933;46.398;-63.798;2023-02-15T01:22:24;2.72;;;0.70;;
66702;SDS011;60933;46.398;-63.798;2023-02-15T01:24:51;2.25;;;0.45;;
66702;SDS011;60933;46.398;-63.798;2023-02-15T01:29:43;3.58;;;0.40;;
66702;SDS011;60933;46.398;-63.798;2023-02-15T01:32:09;2.38;;;0.70;;
66702;SDS011;60933;46.398;-63.798;2023-02-15T01:34:35;2.63;;;0.52;;
66702;SDS011;60933;46.398;-63.798;2023-02-15T01:37:01;4.43;;;0.80;;
66702;SDS011;60933;46.398;-63.798;2023-02-15T01:39:27;0.63;;;0.20;;
66702;SDS011;60933;46.398;-63.798;2023-02-15T01:41:53;1.25;;;0.63;;
66702;SDS011;60933;46.398;-63.798;2023-02-15T01:44:44;2.92;;;0.88;;
66702;SDS011;60933;46.398;-63.798;2023-02-15T01:47:09;5.05;;;1.10;;
66702;SDS011;60933;46.398;-63.798;2023-02-15T01:49:37;1.70;;;0.63;;
66702;SDS011;60933;46.398;-63.798;2023-02-15T01:52:06;2.22;;;0.70;;
66702;SDS011;60933;46.398;-63.798;2023-02-15T01:54:35;4.32;;;0.77;;
66702;SDS011;60933;46.398;-63.798;2023-02-15T01:57:14;1.13;;;0.43;;
66702;SDS011;60933;46.398;-63.798;2023-02-15T01:59:46;2.28;;;0.52;;
66702;SDS011;60933;46.398;-63.798;2023-02-15T02:02:17;0.95;;;0.80;;
66702;SDS011;60933;46.398;-63.798;2023-02-15T02:04:50;1.85;;;0.52;;
66702;SDS011;60933;46.398;-63.798;2023-02-15T02:07:22;1.10;;;0.68;;
66702;SDS011;60933;46.398;-63.798;2023-02-15T02:09:52;2.20;;;0.88;;
66702;SDS011;60933;46.398;-63.798;2023-02-15T02:12:18;2.63;;;0.70;;
66702;SDS011;60933;46.398;-63.798;2023-02-15T02:14:51;2.58;;;0.57;;
66702;SDS011;60933;46.398;-63.798;2023-02-15T02:17:30;2.28;;;0.75;;
66702;SDS011;60933;46.398;-63.798;2023-02-15T02:26:11;1.50;;;0.47;;
66702;SDS011;60933;46.398;-63.798;2023-02-15T02:34:30;1.98;;;0.80;;
66702;SDS011;60933;46.398;-63.798;2023-02-15T02:45:06;2.20;;;0.50;;
66702;SDS011;60933;46.398;-63.798;2023-02-15T02:50:21;1.75;;;0.75;;
66702;SDS011;60933;46.398;-63.798;2023-02-15T02:52:51;2.25;;;0.90;;
66702;SDS011;60933;46.398;-63.798;2023-02-15T02:56:02;4.45;;;0.73;;
66702;SDS011;60933;46.398;-63.798;2023-02-15T03:00:48;0.80;;;0.60;;
66702;SDS011;60933;46.398;-63.798;2023-02-15T03:05:53;2.10;;;0.70;;
66702;SDS011;60933;46.398;-63.798;2023-02-15T03:08:23;4.43;;;0.70;;
66702;SDS011;60933;46.398;-63.798;2023-02-15T03:10:53;3.63;;;0.68;;
66702;SDS011;60933;46.398;-63.798;2023-02-15T03:13:22;0.63;;;0.38;;
66702;SDS011;60933;46.398;-63.798;2023-02-15T03:15:49;2.63;;;1.10;;
66702;SDS011;60933;46.398;-63.798;2023-02-15T03:18:38;6.75;;;1.38;;
66702;SDS011;60933;46.398;-63.798;2023-02-15T03:21:21;9.38;;;1.88;;
66702;SDS011;60933;46.398;-63.798;2023-02-15T03:24:19;3.10;;;1.52;;
66702;SDS011;60933;46.398;-63.798;2023-02-15T03:26:49;7.05;;;2.05;;
66702;SDS011;60933;46.398;-63.798;2023-02-15T03:29:17;4.53;;;1.70;;
66702;SDS011;60933;46.398;-63.798;2023-02-15T03:31:46;8.15;;;2.10;;
66702;SDS011;60933;46.398;-63.798;2023-02-15T03:34:19;5.13;;;1.45;;
66702;SDS011;60933;46.398;-63.798;2023-02-15T03:44:53;5.65;;;1.48;;
66702;SDS011;60933;46.398;-63.798;2023-02-15T03:47:26;8.02;;;2.05;;
66702;SDS011;60933;46.398;-63.798;2023-02-15T03:52:55;8.13;;;1.88;;
66702;SDS011;60933;46.398;-63.798;2023-02-15T03:55:24;4.40;;;1.60;;
66702;SDS011;60933;46.398;-63.798;2023-02-15T03:57:50;5.60;;;1.25;;
66702;SDS011;60933;46.398;-63.798;2023-02-15T04:00:35;3.63;;;0.80;;
66702;SDS011;60933;46.398;-63.798;2023-02-15T04:03:26;3.33;;;1.50;;
66702;SDS011;60933;46.398;-63.798;2023-02-15T04:06:30;8.82;;;1.70;;
66702;SDS011;60933;46.398;-63.798;2023-02-15T04:08:56;6.07;;;1.60;;
66702;SDS011;60933;46.398;-63.798;2023-02-15T04:11:40;5.82;;;1.80;;
66702;SDS011;60933;46.398;-63.798;2023-02-15T04:14:06;4.32;;;1.15;;
66702;SDS011;60933;46.398;-63.798;2023-02-15T04:17:04;4.55;;;1.17;;
66702;SDS011;60933;46.398;-63.798;2023-02-15T04:19:31;4.28;;;1.15;;
66702;SDS011;60933;46.398;-63.798;2023-02-15T04:22:16;1.25;;;0.90;;
66702;SDS011;60933;46.398;-63.798;2023-02-15T04:25:00;2.78;;;1.20;;
66702;SDS011;60933;46.398;-63.798;2023-02-15T04:27:46;3.75;;;0.70;;
66702;SDS011;60933;46.398;-63.798;2023-02-15T04:30:15;3.35;;;0.68;;
66702;SDS011;60933;46.398;-63.798;2023-02-15T04:32:43;2.42;;;0.85;;
66702;SDS011;60933;46.398;-63.798;2023-02-15T04:35:10;3.65;;;0.80;;
66702;SDS011;60933;46.398;-63.798;2023-02-15T04:37:37;6.03;;;1.20;;
66702;SDS011;60933;46.398;-63.798;2023-02-15T04:40:07;2.90;;;0.82;;
66702;SDS011;60933;46.398;-63.798;2023-02-15T04:42:35;5.07;;;1.52;;
66702;SDS011;60933;46.398;-63.798;2023-02-15T04:45:01;2.67;;;1.23;;
66702;SDS011;60933;46.398;-63.798;2023-02-15T04:49:53;2.33;;;0.90;;
66702;SDS011;60933;46.398;-63.798;2023-02-15T04:52:19;3.58;;;1.00;;
66702;SDS011;60933;46.398;-63.798;2023-02-15T04:54:45;1.48;;;0.90;;
66702;SDS011;60933;46.398;-63.798;2023-02-15T04:57:11;2.42;;;1.05;;
66702;SDS011;60933;46.398;-63.798;2023-02-15T04:59:38;3.53;;;0.70;;
66702;SDS011;60933;46.398;-63.798;2023-02-15T05:02:04;1.52;;;0.85;;
66702;SDS011;60933;46.398;-63.798;2023-02-15T05:04:30;1.05;;;0.75;;
66702;SDS011;60933;46.398;-63.798;2023-02-15T05:06:56;2.83;;;0.70;;
66702;SDS011;60933;46.398;-63.798;2023-02-15T05:09:22;1.60;;;0.55;;
66702;SDS011;60933;46.398;-63.798;2023-02-15T05:11:48;3.17;;;0.65;;
66702;SDS011;60933;46.398;-63.798;2023-02-15T05:14:14;1.42;;;0.52;;
66702;SDS011;60933;46.398;-63.798;2023-02-15T05:16:40;1.40;;;0.50;;
66702;SDS011;60933;46.398;-63.798;2023-02-15T05:19:06;2.70;;;0.55;;
66702;SDS011;60933;46.398;-63.798;2023-02-15T05:21:32;3.05;;;0.73;;
66702;SDS011;60933;46.398;-63.798;2023-02-15T05:26:24;1.80;;;0.75;;
66702;SDS011;60933;46.398;-63.798;2023-02-15T05:29:09;2.13;;;0.60;;
66702;SDS011;60933;46.398;-63.798;2023-02-15T05:31:36;1.48;;;0.90;;
66702;SDS011;60933;46.398;-63.798;2023-02-15T05:34:02;2.55;;;0.93;;
66702;SDS011;60933;46.398;-63.798;2023-02-15T05:36:28;3.15;;;1.00;;
66702;SDS011;60933;46.398;-63.798;2023-02-15T05:38:55;3.78;;;1.02;;
66702;SDS011;60933;46.398;-63.798;2023-02-15T05:41:21;1.80;;;0.60;;
66702;SDS011;60933;46.398;-63.798;2023-02-15T05:43:47;2.30;;;0.70;;
66702;SDS011;60933;46.398;-63.798;2023-02-15T05:46:13;2.90;;;0.82;;
66702;SDS011;60933;46.398;-63.798;2023-02-15T05:48:39;2.38;;;0.75;;
66702;SDS011;60933;46.398;-63.798;2023-02-15T05:51:09;3.05;;;1.30;;
66702;SDS011;60933;46.398;-63.798;2023-02-15T05:53:41;2.13;;;0.75;;
66702;SDS011;60933;46.398;-63.798;2023-02-15T05:56:07;5.65;;;1.20;;
66702;SDS011;60933;46.398;-63.798;2023-02-15T05:58:35;4.00;;;0.93;;
66702;SDS011;60933;46.398;-63.798;2023-02-15T06:01:10;2.78;;;0.82;;
66702;SDS011;60933;46.398;-63.798;2023-02-15T06:03:38;2.83;;;1.05;;
66702;SDS011;60933;46.398;-63.798;2023-02-15T06:08:32;2.05;;;0.57;;
66702;SDS011;60933;46.398;-63.798;2023-02-15T06:10:59;5.30;;;1.02;;
66702;SDS011;60933;46.398;-63.798;2023-02-15T06:13:26;2.65;;;1.05;;
66702;SDS011;60933;46.398;-63.798;2023-02-15T06:15:52;3.13;;;0.95;;
66702;SDS011;60933;46.398;-63.798;2023-02-15T06:18:18;1.83;;;0.82;;
66702;SDS011;60933;46.398;-63.798;2023-02-15T06:20:47;4.22;;;0.70;;
66702;SDS011;60933;46.398;-63.798;2023-02-15T06:23:14;1.42;;;0.80;;
66702;SDS011;60933;46.398;-63.798;2023-02-15T06:25:40;0.70;;;0.38;;
66702;SDS011;60933;46.398;-63.798;2023-02-15T06:30:32;3.22;;;0.88;;
66702;SDS011;60933;46.398;-63.798;2023-02-15T06:32:58;2.42;;;1.02;;
66702;SDS011;60933;46.398;-63.798;2023-02-15T06:35:24;2.55;;;0.60;;
66702;SDS011;60933;46.398;-63.798;2023-02-15T06:37:50;3.90;;;0.90;;
66702;SDS011;60933;46.398;-63.798;2023-02-15T06:40:16;1.45;;;0.70;;
66702;SDS011;60933;46.398;-63.798;2023-02-15T06:42:43;2.08;;;0.30;;
66702;SDS011;60933;46.398;-63.798;2023-02-15T06:45:10;1.85;;;0.60;;
66702;SDS011;60933;46.398;-63.798;2023-02-15T06:47:36;2.10;;;0.63;;
66702;SDS011;60933;46.398;-63.798;2023-02-15T06:52:29;1.15;;;0.52;;
66702;SDS011;60933;46.398;-63.798;2023-02-15T06:54:55;2.55;;;0.47;;
66702;SDS011;60933;46.398;-63.798;2023-02-15T06:57:21;0.98;;;0.30;;
66702;SDS011;60933;46.398;-63.798;2023-02-15T06:59:47;0.90;;;0.52;;
66702;SDS011;60933;46.398;-63.798;2023-02-15T07:02:14;1.70;;;0.68;;
66702;SDS011;60933;46.398;-63.798;2023-02-15T07:04:40;2.00;;;0.60;;
66702;SDS011;60933;46.398;-63.798;2023-02-15T07:07:09;0.38;;;0.28;;
66702;SDS011;60933;46.398;-63.798;2023-02-15T07:09:37;3.38;;;0.70;;
66702;SDS011;60933;46.398;-63.798;2023-02-15T07:12:04;1.15;;;0.43;;
66702;SDS011;60933;46.398;-63.798;2023-02-15T07:14:48;0.55;;;0.32;;
66702;SDS011;60933;46.398;-63.798;2023-02-15T07:17:14;1.33;;;0.50;;
66702;SDS011;60933;46.398;-63.798;2023-02-15T07:19:41;0.82;;;0.20;;
66702;SDS011;60933;46.398;-63.798;2023-02-15T07:22:07;4.20;;;0.90;;
66702;SDS011;60933;46.398;-63.798;2023-02-15T07:24:33;2.42;;;0.40;;
66702;SDS011;60933;46.398;-63.798;2023-02-15T07:26:59;1.30;;;0.80;;
66702;SDS011;60933;46.398;-63.798;2023-02-15T07:29:25;1.50;;;0.38;;
66702;SDS011;60933;46.398;-63.798;2023-02-15T07:31:51;1.27;;;0.73;;
66702;SDS011;60933;46.398;-63.798;2023-02-15T07:34:17;1.83;;;0.63;;
66702;SDS011;60933;46.398;-63.798;2023-02-15T07:36:43;1.48;;;0.40;;
66702;SDS011;60933;46.398;-63.798;2023-02-15T07:39:10;2.33;;;0.68;;
66702;SDS011;60933;46.398;-63.798;2023-02-15T07:41:36;3.00;;;0.63;;
66702;SDS011;60933;46.398;-63.798;2023-02-15T07:44:02;3.13;;;0.63;;
66702;SDS011;60933;46.398;-63.798;2023-02-15T07:46:28;1.45;;;0.50;;
66702;SDS011;60933;46.398;-63.798;2023-02-15T07:48:55;1.35;;;0.65;;
66702;SDS011;60933;46.398;-63.798;2023-02-15T07:51:21;2.22;;;0.75;;
66702;SDS011;60933;46.398;-63.798;2023-02-15T07:53:47;2.13;;;0.60;;
66702;SDS011;60933;46.398;-63.798;2023-02-15T07:56:13;1.55;;;0.50;;
66702;SDS011;60933;46.398;-63.798;2023-02-15T08:01:29;2.05;;;0.73;;
66702;SDS011;60933;46.398;-63.798;2023-02-15T08:03:57;4.10;;;1.23;;
66702;SDS011;60933;46.398;-63.798;2023-02-15T08:08:50;3.67;;;0.75;;
66702;SDS011;60933;46.398;-63.798;2023-02-15T08:11:18;1.10;;;0.40;;
66702;SDS011;60933;46.398;-63.798;2023-02-15T08:13:58;0.55;;;0.32;;
66702;SDS011;60933;46.398;-63.798;2023-02-15T08:19:03;1.90;;;0.68;;
66702;SDS011;60933;46.398;-63.798;2023-02-15T08:21:30;1.48;;;0.60;;
66702;SDS011;60933;46.398;-63.798;2023-02-15T08:23:58;1.05;;;0.68;;
66702;SDS011;60933;46.398;-63.798;2023-02-15T08:26:24;1.13;;;0.82;;
66702;SDS011;60933;46.398;-63.798;2023-02-15T08:28:52;3.25;;;0.93;;
66702;SDS011;60933;46.398;-63.798;2023-02-15T08:31:19;1.58;;;0.70;;
66702;SDS011;60933;46.398;-63.798;2023-02-15T08:33:46;1.25;;;0.50;;
66702;SDS011;60933;46.398;-63.798;2023-02-15T08:36:15;0.60;;;0.32;;
66702;SDS011;60933;46.398;-63.798;2023-02-15T08:38:42;0.75;;;0.52;;
66702;SDS011;60933;46.398;-63.798;2023-02-15T08:41:16;1.08;;;0.40;;
66702;SDS011;60933;46.398;-63.798;2023-02-15T08:43:44;1.38;;;0.45;;
66702;SDS011;60933;46.398;-63.798;2023-02-15T08:46:12;2.20;;;0.43;;
66702;SDS011;60933;46.398;-63.798;2023-02-15T08:48:40;4.40;;;1.00;;
66702;SDS011;60933;46.398;-63.798;2023-02-15T08:51:07;1.65;;;0.75;;
66702;SDS011;60933;46.398;-63.798;2023-02-15T08:53:47;1.45;;;0.55;;
66702;SDS011;60933;46.398;-63.798;2023-02-15T08:56:17;7.28;;;0.90;;
66702;SDS011;60933;46.398;-63.798;2023-02-15T08:58:45;3.80;;;0.50;;
66702;SDS011;60933;46.398;-63.798;2023-02-15T09:01:12;0.82;;;0.82;;
66702;SDS011;60933;46.398;-63.798;2023-02-15T09:03:43;0.25;;;0.20;;
66702;SDS011;60933;46.398;-63.798;2023-02-15T09:06:10;1.67;;;0.93;;
66702;SDS011;60933;46.398;-63.798;2023-02-15T09:08:36;1.75;;;0.22;;
66702;SDS011;60933;46.398;-63.798;2023-02-15T09:13:41;2.30;;;0.63;;
66702;SDS011;60933;46.398;-63.798;2023-02-15T09:16:09;1.50;;;0.55;;
66702;SDS011;60933;46.398;-63.798;2023-02-15T09:18:36;4.38;;;1.05;;
66702;SDS011;60933;46.398;-63.798;2023-02-15T09:21:04;6.05;;;1.63;;
66702;SDS011;60933;46.398;-63.798;2023-02-15T09:23:31;3.30;;;1.23;;
66702;SDS011;60933;46.398;-63.798;2023-02-15T09:26:01;1.20;;;0.55;;
66702;SDS011;60933;46.398;-63.798;2023-02-15T09:28:28;2.33;;;0.73;;
66702;SDS011;60933;46.398;-63.798;2023-02-15T09:30:54;1.98;;;0.73;;
66702;SDS011;60933;46.398;-63.798;2023-02-15T09:33:20;3.20;;;0.85;;
66702;SDS011;60933;46.398;-63.798;2023-02-15T09:35:47;1.95;;;0.75;;
66702;SDS011;60933;46.398;-63.798;2023-02-15T09:38:13;3.55;;;0.75;;
66702;SDS011;60933;46.398;-63.798;2023-02-15T09:40:41;4.97;;;1.25;;
66702;SDS011;60933;46.398;-63.798;2023-02-15T09:43:19;3.15;;;1.17;;
66702;SDS011;60933;46.398;-63.798;2023-02-15T09:48:48;3.50;;;1.35;;
66702;SDS011;60933;46.398;-63.798;2023-02-15T09:56:55;6.50;;;1.38;;
66702;SDS011;60933;46.398;-63.798;2023-02-15T09:59:47;4.45;;;1.23;;
66702;SDS011;60933;46.398;-63.798;2023-02-15T10:02:48;1.88;;;0.68;;
66702;SDS011;60933;46.398;-63.798;2023-02-15T10:05:37;3.65;;;0.73;;
66702;SDS011;60933;46.398;-63.798;2023-02-15T10:08:25;0.60;;;0.32;;
66702;SDS011;60933;46.398;-63.798;2023-02-15T10:11:15;2.03;;;0.50;;
66702;SDS011;60933;46.398;-63.798;2023-02-15T10:25:42;4.30;;;0.52;;
66702;SDS011;60933;46.398;-63.798;2023-02-15T10:28:16;1.42;;;0.45;;
66702;SDS011;60933;46.398;-63.798;2023-02-15T10:30:48;0.60;;;0.45;;
66702;SDS011;60933;46.398;-63.798;2023-02-15T10:47:07;1.35;;;0.60;;
66702;SDS011;60933;46.398;-63.798;2023-02-15T11:01:40;2.05;;;0.73;;
66702;SDS011;60933;46.398;-63.798;2023-02-15T11:07:18;5.40;;;2.00;;
66702;SDS011;60933;46.398;-63.798;2023-02-15T11:09:51;4.57;;;2.03;;
66702;SDS011;60933;46.398;-63.798;2023-02-15T11:12:27;7.13;;;1.73;;
66702;SDS011;60933;46.398;-63.798;2023-02-15T11:17:46;4.45;;;1.10;;
66702;SDS011;60933;46.398;-63.798;2023-02-15T11:20:19;1.77;;;0.75;;
66702;SDS011;60933;46.398;-63.798;2023-02-15T11:22:55;2.75;;;0.65;;
66702;SDS011;60933;46.398;-63.798;2023-02-15T11:25:29;1.65;;;1.42;;
66702;SDS011;60933;46.398;-63.798;2023-02-15T11:27:57;1.50;;;0.68;;
66702;SDS011;60933;46.398;-63.798;2023-02-15T11:30:30;0.52;;;0.43;;
66702;SDS011;60933;46.398;-63.798;2023-02-15T11:33:15;2.53;;;0.90;;
66702;SDS011;60933;46.398;-63.798;2023-02-15T11:39:03;1.95;;;1.13;;
66702;SDS011;60933;46.398;-63.798;2023-02-15T11:41:37;2.75;;;1.10;;
66702;SDS011;60933;46.398;-63.798;2023-02-15T11:47:02;3.75;;;1.23;;
66702;SDS011;60933;46.398;-63.798;2023-02-15T11:49:32;2.35;;;0.70;;
66702;SDS011;60933;46.398;-63.798;2023-02-15T11:52:07;3.70;;;0.60;;
66702;SDS011;60933;46.398;-63.798;2023-02-15T11:54:39;1.92;;;0.45;;
66702;SDS011;60933;46.398;-63.798;2023-02-15T11:57:18;6.82;;;1.00;;
66702;SDS011;60933;46.398;-63.798;2023-02-15T12:02:50;4.40;;;0.80;;
66702;SDS011;60933;46.398;-63.798;2023-02-15T12:05:19;1.63;;;1.00;;
66702;SDS011;60933;46.398;-63.798;2023-02-15T12:07:50;3.03;;;0.70;;
66702;SDS011;60933;46.398;-63.798;2023-02-15T12:10:38;1.98;;;1.08;;
66702;SDS011;60933;46.398;-63.798;2023-02-15T12:13:14;4.43;;;1.27;;
66702;SDS011;60933;46.398;-63.798;2023-02-15T12:15:42;1.88;;;1.02;;
66702;SDS011;60933;46.398;-63.798;2023-02-15T12:21:07;2.15;;;0.82;;
66702;SDS011;60933;46.398;-63.798;2023-02-15T12:23:39;2.10;;;0.52;;
66702;SDS011;60933;46.398;-63.798;2023-02-15T12:26:13;2.65;;;1.00;;
66702;SDS011;60933;46.398;-63.798;2023-02-15T12:28:43;3.85;;;0.90;;
66702;SDS011;60933;46.398;-63.798;2023-02-15T12:36:44;0.70;;;0.63;;
66702;SDS011;60933;46.398;-63.798;2023-02-15T12:39:17;0.32;;;0.30;;
66702;SDS011;60933;46.398;-63.798;2023-02-15T12:44:22;1.27;;;0.60;;
66702;SDS011;60933;46.398;-63.798;2023-02-15T12:49:42;2.38;;;0.85;;
66702;SDS011;60933;46.398;-63.798;2023-02-15T12:54:47;2.00;;;0.52;;
66702;SDS011;60933;46.398;-63.798;2023-02-15T12:57:29;2.42;;;0.77;;
66702;SDS011;60933;46.398;-63.798;2023-02-15T13:00:00;9.50;;;0.70;;
66702;SDS011;60933;46.398;-63.798;2023-02-15T13:02:30;3.42;;;0.80;;
66702;SDS011;60933;46.398;-63.798;2023-02-15T13:08:21;2.35;;;0.63;;
66702;SDS011;60933;46.398;-63.798;2023-02-15T13:13:28;4.25;;;0.90;;
66702;SDS011;60933;46.398;-63.798;2023-02-15T13:16:01;0.77;;;0.50;;
66702;SDS011;60933;46.398;-63.798;2023-02-15T13:18:34;4.35;;;0.70;;
66702;SDS011;60933;46.398;-63.798;2023-02-15T13:23:42;2.72;;;1.23;;
66702;SDS011;60933;46.398;-63.798;2023-02-15T13:26:23;6.45;;;1.50;;
66702;SDS011;60933;46.398;-63.798;2023-02-15T13:32:01;4.68;;;1.40;;
66702;SDS011;60933;46.398;-63.798;2023-02-15T13:34:38;5.70;;;1.80;;
66702;SDS011;60933;46.398;-63.798;2023-02-15T13:37:06;6.45;;;1.05;;
66702;SDS011;60933;46.398;-63.798;2023-02-15T13:39:47;3.75;;;1.27;;
66702;SDS011;60933;46.398;-63.798;2023-02-15T13:42:31;3.75;;;0.85;;
66702;SDS011;60933;46.398;-63.798;2023-02-15T13:48:00;3.97;;;1.70;;
66702;SDS011;60933;46.398;-63.798;2023-02-15T14:01:32;4.93;;;1.80;;
66702;SDS011;60933;46.398;-63.798;2023-02-15T14:04:12;11.68;;;2.40;;
66702;SDS011;60933;46.398;-63.798;2023-02-15T14:12:39;4.30;;;1.80;;
66702;SDS011;60933;46.398;-63.798;2023-02-15T14:28:15;2.83;;;1.50;;
66702;SDS011;60933;46.398;-63.798;2023-02-15T14:30:49;1.60;;;1.00;;
66702;SDS011;60933;46.398;-63.798;2023-02-15T14:33:24;1.75;;;0.77;;
66702;SDS011;60933;46.398;-63.798;2023-02-15T14:35:54;2.97;;;0.98;;
66702;SDS011;60933;46.398;-63.798;2023-02-15T14:38:33;3.03;;;0.55;;
66702;SDS011;60933;46.398;-63.798;2023-02-15T14:41:19;3.30;;;0.73;;
66702;SDS011;60933;46.398;-63.798;2023-02-15T14:44:08;5.10;;;2.00;;
66702;SDS011;60933;46.398;-63.798;2023-02-15T14:49:32;3.22;;;1.00;;
66702;SDS011;60933;46.398;-63.798;2023-02-15T15:02:39;2.65;;;0.70;;
66702;SDS011;60933;46.398;-63.798;2023-02-15T15:05:21;1.85;;;1.20;;
66702;SDS011;60933;46.398;-63.798;2023-02-15T15:08:01;2.42;;;1.20;;
66702;SDS011;60933;46.398;-63.798;2023-02-15T15:10:33;3.58;;;1.38;;
66702;SDS011;60933;46.398;-63.798;2023-02-15T15:13:34;5.13;;;1.60;;
66702;SDS011;60933;46.398;-63.798;2023-02-15T15:16:45;6.00;;;1.02;;
66702;SDS011;60933;46.398;-63.798;2023-02-15T15:18:50;4.90;;;1.48;;
66702;SDS011;60933;46.398;-63.798;2023-02-15T15:33:27;1.50;;;0.82;;
66702;SDS011;60933;46.398;-63.798;2023-02-15T15:41:18;3.50;;;1.50;;
66702;SDS011;60933;46.398;-63.798;2023-02-15T15:49:40;1.95;;;1.02;;
66702;SDS011;60933;46.398;-63.798;2023-02-15T15:52:17;2.72;;;0.98;;
66702;SDS011;60933;46.398;-63.798;2023-02-15T15:54:50;2.75;;;1.05;;
66702;SDS011;60933;46.398;-63.798;2023-02-15T15:59:52;1.98;;;0.52;;
66702;SDS011;60933;46.398;-63.798;2023-02-15T16:02:19;1.27;;;0.60;;
66702;SDS011;60933;46.398;-63.798;2023-02-15T16:04:46;1.38;;;0.80;;
66702;SDS011;60933;46.398;-63.798;2023-02-15T16:09:57;3.15;;;1.15;;
66702;SDS011;60933;46.398;-63.798;2023-02-15T16:12:29;1.63;;;0.75;;
66702;SDS011;60933;46.398;-63.798;2023-02-15T16:14:58;2.15;;;1.05;;
66702;SDS011;60933;46.398;-63.798;2023-02-15T16:17:30;2.85;;;0.82;;
66702;SDS011;60933;46.398;-63.798;2023-02-15T16:20:03;4.38;;;1.15;;
66702;SDS011;60933;46.398;-63.798;2023-02-15T16:27:43;1.63;;;0.63;;
66702;SDS011;60933;46.398;-63.798;2023-02-15T16:32:52;1.58;;;0.70;;
66702;SDS011;60933;46.398;-63.798;2023-02-15T16:35:29;1.75;;;0.93;;
66702;SDS011;60933;46.398;-63.798;2023-02-15T16:37:56;2.35;;;0.93;;
66702;SDS011;60933;46.398;-63.798;2023-02-15T16:45:16;1.92;;;1.00;;
66702;SDS011;60933;46.398;-63.798;2023-02-15T16:47:46;4.07;;;1.40;;
66702;SDS011;60933;46.398;-63.798;2023-02-15T16:53:05;3.28;;;1.30;;
66702;SDS011;60933;46.398;-63.798;2023-02-15T16:55:40;2.40;;;1.00;;
66702;SDS011;60933;46.398;-63.798;2023-02-15T16:58:11;3.63;;;0.90;;
66702;SDS011;60933;46.398;-63.798;2023-02-15T17:00:40;2.65;;;0.93;;
66702;SDS011;60933;46.398;-63.798;2023-02-15T17:05:46;2.42;;;1.02;;
66702;SDS011;60933;46.398;-63.798;2023-02-15T17:08:17;1.55;;;0.73;;
66702;SDS011;60933;46.398;-63.798;2023-02-15T17:13:24;4.40;;;1.05;;
66702;SDS011;60933;46.398;-63.798;2023-02-15T17:18:28;2.47;;;1.48;;
66702;SDS011;60933;46.398;-63.798;2023-02-15T17:20:56;1.63;;;1.17;;
66702;SDS011;60933;46.398;-63.798;2023-02-15T17:23:32;1.13;;;0.65;;
66702;SDS011;60933;46.398;-63.798;2023-02-15T17:26:21;1.20;;;0.95;;
66702;SDS011;60933;46.398;-63.798;2023-02-15T17:28:50;0.95;;;0.63;;
66702;SDS011;60933;46.398;-63.798;2023-02-15T17:31:19;8.27;;;1.10;;
66702;SDS011;60933;46.398;-63.798;2023-02-15T17:33:47;2.78;;;1.13;;
66702;SDS011;60933;46.398;-63.798;2023-02-15T17:36:17;4.35;;;0.80;;
66702;SDS011;60933;46.398;-63.798;2023-02-15T17:39:06;2.13;;;0.90;;
66702;SDS011;60933;46.398;-63.798;2023-02-15T17:41:45;3.70;;;1.13;;
66702;SDS011;60933;46.398;-63.798;2023-02-15T17:44:12;2.13;;;0.95;;
66702;SDS011;60933;46.398;-63.798;2023-02-15T17:46:40;1.42;;;0.90;;
66702;SDS011;60933;46.398;-63.798;2023-02-15T17:49:15;3.03;;;1.10;;
66702;SDS011;60933;46.398;-63.798;2023-02-15T17:51:49;1.15;;;0.77;;
66702;SDS011;60933;46.398;-63.798;2023-02-15T17:54:15;1.45;;;0.70;;
66702;SDS011;60933;46.398;-63.798;2023-02-15T17:57:00;1.77;;;0.85;;
66702;SDS011;60933;46.398;-63.798;2023-02-15T17:59:30;0.80;;;0.65;;
66702;SDS011;60933;46.398;-63.798;2023-02-15T18:01:56;2.47;;;0.50;;
66702;SDS011;60933;46.398;-63.798;2023-02-15T18:04:40;1.00;;;0.60;;
66702;SDS011;60933;46.398;-63.798;2023-02-15T18:07:25;1.83;;;0.60;;
66702;SDS011;60933;46.398;-63.798;2023-02-15T18:10:17;1.98;;;0.70;;
66702;SDS011;60933;46.398;-63.798;2023-02-15T18:13:02;2.60;;;0.80;;
66702;SDS011;60933;46.398;-63.798;2023-02-15T18:15:28;1.60;;;1.50;;
66702;SDS011;60933;46.398;-63.798;2023-02-15T18:17:54;1.35;;;0.88;;
66702;SDS011;60933;46.398;-63.798;2023-02-15T18:20:23;2.92;;;0.82;;
66702;SDS011;60933;46.398;-63.798;2023-02-15T18:22:53;2.17;;;0.73;;
66702;SDS011;60933;46.398;-63.798;2023-02-15T18:25:20;1.90;;;0.93;;
66702;SDS011;60933;46.398;-63.798;2023-02-15T18:27:48;0.98;;;0.63;;
66702;SDS011;60933;46.398;-63.798;2023-02-15T18:30:15;1.17;;;0.60;;
66702;SDS011;60933;46.398;-63.798;2023-02-15T18:32:47;2.10;;;0.70;;
66702;SDS011;60933;46.398;-63.798;2023-02-15T18:35:19;2.30;;;1.30;;
66702;SDS011;60933;46.398;-63.798;2023-02-15T18:37:48;1.83;;;1.30;;
66702;SDS011;60933;46.398;-63.798;2023-02-15T18:40:17;3.40;;;1.90;;
66702;SDS011;60933;46.398;-63.798;2023-02-15T18:42:46;1.15;;;0.75;;
66702;SDS011;60933;46.398;-63.798;2023-02-15T18:45:17;1.67;;;0.80;;
66702;SDS011;60933;46.398;-63.798;2023-02-15T18:47:45;2.17;;;0.80;;
66702;SDS011;60933;46.398;-63.798;2023-02-15T18:50:13;4.43;;;1.63;;
66702;SDS011;60933;46.398;-63.798;2023-02-15T18:52:40;2.42;;;1.40;;
66702;SDS011;60933;46.398;-63.798;2023-02-15T18:55:27;2.55;;;1.30;;
66702;SDS011;60933;46.398;-63.798;2023-02-15T18:57:54;1.67;;;0.85;;
66702;SDS011;60933;46.398;-63.798;2023-02-15T19:00:28;1.92;;;0.82;;